Time;durP1;ratioP1;P1;durP2;ratioP2;P2;SDS_P1;SDS_P2;PMS_P1;PMS_P2;Temp;Humidity;BMP_temperature;BMP_pressure;BME280_temperature;BME280_humidity;BME280_pressure;Samples;Min_cycle;Max_cycle;Signal;HPM_P1;HPM_P2
2022/05/20 00:02:14;;;;;;;7.45;2.47;;;;;;;;;;5052053;28;20483;-59
2022/05/20 00:04:41;;;;;;;6.70;3.00;;;;;;;;;;5057058;28;20048;-59
2022/05/20 00:07:07;;;;;;;8.85;3.42;;;;;;;;;;5065819;28;20074;-57
2022/05/20 00:09:33;;;;;;;8.48;3.13;;;;;;;;;;5064304;28;20383;-57
2022/05/20 00:11:59;;;;;;;7.63;2.50;;;;;;;;;;5062120;28;20039;-58
2022/05/20 00:14:25;;;;;;;7.72;2.95;;;;;;;;;;5066017;28;20123;-59
2022/05/20 00:16:52;;;;;;;7.93;3.05;;;;;;;;;;5059763;28;20531;-57
2022/05/20 00:19:18;;;;;;;9.60;3.03;;;;;;;;;;5067629;28;20033;-58
2022/05/20 00:21:44;;;;;;;9.48;2.67;;;;;;;;;;5057832;28;20031;-59
2022/05/20 00:24:10;;;;;;;8.95;3.20;;;;;;;;;;5067620;28;20426;-58
2022/05/20 00:26:36;;;;;;;10.57;2.90;;;;;;;;;;5064074;28;20411;-59
2022/05/20 00:29:02;;;;;;;7.10;2.78;;;;;;;;;;5048898;28;20036;-59
2022/05/20 00:31:28;;;;;;;12.18;3.92;;;;;;;;;;5060484;28;20040;-59
2022/05/20 00:33:54;;;;;;;10.30;2.65;;;;;;;;;;5048688;28;20049;-59
2022/05/20 00:36:20;;;;;;;8.15;3.17;;;;;;;;;;5052886;28;20032;-58
2022/05/20 00:38:46;;;;;;;7.07;2.88;;;;;;;;;;5068521;28;20043;-59
2022/05/20 00:41:13;;;;;;;10.95;3.15;;;;;;;;;;5064545;28;20490;-58
2022/05/20 00:43:40;;;;;;;10.13;3.58;;;;;;;;;;5051209;28;20119;-59
2022/05/20 00:46:13;;;;;;;6.40;2.40;;;;;;;;;;5056217;28;20025;-58
2022/05/20 00:48:39;;;;;;;8.43;2.90;;;;;;;;;;5052384;28;20032;-59
2022/05/20 00:51:10;;;;;;;12.93;3.38;;;;;;;;;;5054301;28;20123;-58
2022/05/20 00:53:40;;;;;;;7.22;2.63;;;;;;;;;;5054358;28;20024;-58
2022/05/20 00:56:08;;;;;;;6.60;2.90;;;;;;;;;;5053462;28;20602;-54
2022/05/20 00:58:34;;;;;;;8.68;2.97;;;;;;;;;;5055890;28;20610;-59
2022/05/20 01:01:00;;;;;;;7.47;2.38;;;;;;;;;;5051507;28;20248;-56
2022/05/20 01:03:27;;;;;;;9.75;3.28;;;;;;;;;;5058092;28;20060;-56
2022/05/20 01:05:54;;;;;;;6.95;3.25;;;;;;;;;;5050862;28;20100;-58
2022/05/20 01:08:22;;;;;;;10.27;3.20;;;;;;;;;;5058895;28;20527;-58
2022/05/20 01:10:48;;;;;;;12.38;2.92;;;;;;;;;;5049608;28;20083;-57
2022/05/20 01:13:15;;;;;;;7.22;2.70;;;;;;;;;;5059781;28;20029;-58
2022/05/20 01:15:42;;;;;;;9.35;2.50;;;;;;;;;;5049099;28;20126;-57
2022/05/20 01:18:09;;;;;;;12.10;3.47;;;;;;;;;;5063288;28;20123;-58
2022/05/20 01:20:37;;;;;;;10.27;2.90;;;;;;;;;;5048136;28;20475;-58
2022/05/20 01:23:08;;;;;;;11.80;2.90;;;;;;;;;;5055215;28;20153;-57
2022/05/20 01:25:34;;;;;;;8.98;2.97;;;;;;;;;;5068341;28;20040;-56
2022/05/20 01:28:00;;;;;;;8.35;2.50;;;;;;;;;;5053628;28;20075;-57
2022/05/20 01:30:27;;;;;;;6.82;2.72;;;;;;;;;;5067410;28;20047;-59
2022/05/20 01:32:54;;;;;;;7.22;2.60;;;;;;;;;;5064422;28;20115;-59
2022/05/20 01:35:32;;;;;;;4.47;2.17;;;;;;;;;;5050687;28;20056;-59
2022/05/20 01:37:58;;;;;;;6.30;3.20;;;;;;;;;;5052579;28;20112;-60
2022/05/20 01:40:27;;;;;;;7.63;2.70;;;;;;;;;;5064140;28;20063;-59
2022/05/20 01:43:00;;;;;;;7.75;2.60;;;;;;;;;;5064523;28;20032;-58
2022/05/20 01:45:33;;;;;;;9.23;2.75;;;;;;;;;;5052849;28;20398;-58
2022/05/20 01:48:10;;;;;;;6.22;2.50;;;;;;;;;;5052692;28;20025;-59
2022/05/20 01:50:43;;;;;;;6.60;2.63;;;;;;;;;;5048261;28;20033;-57
2022/05/20 01:53:15;;;;;;;7.70;2.88;;;;;;;;;;5054241;28;20065;-58
2022/05/20 01:56:07;;;;;;;5.90;2.55;;;;;;;;;;5053623;28;20049;-59
2022/05/20 01:58:42;;;;;;;8.82;3.20;;;;;;;;;;5053141;28;20037;-58
2022/05/20 02:01:11;;;;;;;8.20;2.65;;;;;;;;;;5051439;28;20044;-58
2022/05/20 02:03:37;;;;;;;8.90;2.83;;;;;;;;;;5059023;28;20162;-57
2022/05/20 02:06:10;;;;;;;6.90;2.60;;;;;;;;;;5058699;28;20539;-57
2022/05/20 02:08:39;;;;;;;6.38;2.50;;;;;;;;;;5066069;28;20065;-59
2022/05/20 02:11:12;;;;;;;8.13;2.65;;;;;;;;;;5065496;28;20024;-58
2022/05/20 02:13:42;;;;;;;8.02;3.00;;;;;;;;;;5067110;28;20167;-58
2022/05/20 02:16:20;;;;;;;6.85;2.13;;;;;;;;;;5063797;28;20158;-57
2022/05/20 02:18:49;;;;;;;6.63;2.45;;;;;;;;;;5067136;28;20076;-59
2022/05/20 02:21:17;;;;;;;6.38;2.28;;;;;;;;;;5063726;28;20429;-58
2022/05/20 02:23:46;;;;;;;8.48;2.40;;;;;;;;;;5069107;28;20091;-59
2022/05/20 02:26:14;;;;;;;7.68;2.53;;;;;;;;;;5061749;28;20166;-60
2022/05/20 02:28:42;;;;;;;6.53;2.65;;;;;;;;;;5069515;28;20036;-57
2022/05/20 02:31:12;;;;;;;7.32;2.60;;;;;;;;;;5059669;28;20132;-59
2022/05/20 02:33:38;;;;;;;7.30;2.60;;;;;;;;;;5069481;28;20100;-59
2022/05/20 02:36:08;;;;;;;5.28;2.28;;;;;;;;;;5062204;28;20116;-57
2022/05/20 02:38:35;;;;;;;9.20;2.42;;;;;;;;;;5051679;28;20068;-57
2022/05/20 02:41:01;;;;;;;7.07;2.65;;;;;;;;;;5062773;28;20040;-58
2022/05/20 02:43:27;;;;;;;7.20;2.65;;;;;;;;;;5051287;28;20028;-58
2022/05/20 02:45:54;;;;;;;9.02;3.40;;;;;;;;;;5062819;28;20024;-57
2022/05/20 02:48:20;;;;;;;4.57;2.20;;;;;;;;;;5051235;28;20032;-58
2022/05/20 02:50:49;;;;;;;6.45;2.15;;;;;;;;;;5062802;28;20635;-58
2022/05/20 02:53:15;;;;;;;7.13;2.33;;;;;;;;;;5051367;28;20029;-58
2022/05/20 02:55:42;;;;;;;5.00;2.30;;;;;;;;;;5055304;28;20028;-58
2022/05/20 03:04:09;;;;;;;7.43;2.50;;;;;;;;;;5068281;28;20563;-56
2022/05/20 03:06:24;;;;;;;4.57;1.88;;;;;;;;;;5055334;28;20090;-57
2022/05/20 03:08:51;;;;;;;6.68;2.45;;;;;;;;;;5050576;28;20061;-58
2022/05/20 03:11:17;;;;;;;6.38;2.47;;;;;;;;;;5061536;28;20024;-58
2022/05/20 03:13:43;;;;;;;3.85;2.13;;;;;;;;;;5050700;28;20041;-58
2022/05/20 03:16:10;;;;;;;8.35;2.75;;;;;;;;;;5058638;28;20013;-58
2022/05/20 03:18:36;;;;;;;4.70;2.10;;;;;;;;;;5054608;28;20060;-59
2022/05/20 03:21:02;;;;;;;4.25;2.05;;;;;;;;;;5056392;28;20107;-56
2022/05/20 03:23:29;;;;;;;4.35;1.88;;;;;;;;;;5057076;28;20029;-56
2022/05/20 03:25:55;;;;;;;5.80;2.58;;;;;;;;;;5051919;28;20491;-58
2022/05/20 03:28:21;;;;;;;6.50;2.50;;;;;;;;;;5061283;28;20025;-59
2022/05/20 03:30:48;;;;;;;5.07;2.03;;;;;;;;;;5068083;28;20625;-57
2022/05/20 03:33:14;;;;;;;4.63;2.22;;;;;;;;;;5059073;28;20612;-55
2022/05/20 03:35:40;;;;;;;5.85;2.50;;;;;;;;;;5068470;28;20049;-55
2022/05/20 03:38:06;;;;;;;4.80;2.10;;;;;;;;;;5059224;28;20043;-57
2022/05/20 03:40:32;;;;;;;4.20;2.25;;;;;;;;;;5070036;28;20041;-57
2022/05/20 03:42:59;;;;;;;4.55;2.05;;;;;;;;;;5062662;28;20013;-55
2022/05/20 03:45:25;;;;;;;8.10;3.00;;;;;;;;;;5050000;28;20033;-58
2022/05/20 03:47:51;;;;;;;9.43;2.30;;;;;;;;;;5062511;28;20052;-58
2022/05/20 03:50:17;;;;;;;4.32;2.03;;;;;;;;;;5049802;28;20532;-58
2022/05/20 03:52:44;;;;;;;4.60;2.28;;;;;;;;;;5060786;28;20098;-58
2022/05/20 03:55:10;;;;;;;5.53;2.58;;;;;;;;;;5050479;28;20113;-58
2022/05/20 03:57:36;;;;;;;7.03;2.53;;;;;;;;;;5058299;28;20567;-57
2022/05/20 04:00:04;;;;;;;4.85;2.05;;;;;;;;;;5053371;28;20048;-58
2022/05/20 04:02:30;;;;;;;5.70;2.35;;;;;;;;;;5055574;28;20048;-58
2022/05/20 04:04:56;;;;;;;5.57;2.03;;;;;;;;;;5055743;28;20067;-56
2022/05/20 04:07:23;;;;;;;7.70;2.25;;;;;;;;;;5053404;28;20438;-57
2022/05/20 04:09:49;;;;;;;5.90;2.08;;;;;;;;;;5058012;28;20102;-58
2022/05/20 04:12:24;;;;;;;6.60;2.50;;;;;;;;;;5051350;28;20025;-58
2022/05/20 04:14:51;;;;;;;6.15;2.30;;;;;;;;;;5058882;28;20040;-58
2022/05/20 04:17:17;;;;;;;6.05;2.17;;;;;;;;;;5050529;28;20033;-58
2022/05/20 04:19:44;;;;;;;8.55;2.33;;;;;;;;;;5060459;28;20037;-55
2022/05/20 04:22:11;;;;;;;6.22;2.40;;;;;;;;;;5050621;28;20035;-58
2022/05/20 04:24:38;;;;;;;8.32;1.95;;;;;;;;;;5060089;28;20135;-59
2022/05/20 04:27:04;;;;;;;7.53;2.10;;;;;;;;;;5049713;28;20036;-56
2022/05/20 04:29:30;;;;;;;5.07;2.42;;;;;;;;;;5055621;28;20031;-57
2022/05/20 04:31:56;;;;;;;10.32;2.65;;;;;;;;;;5068706;28;20021;-55
2022/05/20 04:34:22;;;;;;;5.90;2.28;;;;;;;;;;5063842;28;20048;-57
2022/05/20 04:36:49;;;;;;;6.45;2.50;;;;;;;;;;5048948;28;20024;-57
2022/05/20 04:39:15;;;;;;;11.25;2.60;;;;;;;;;;5059426;28;20032;-58
2022/05/20 04:47:32;;;;;;;10.20;2.20;;;;;;;;;;4987541;28;20045;-58
2022/05/20 04:49:58;;;;;;;6.40;2.20;;;;;;;;;;5029600;28;20507;-57
2022/05/20 04:52:24;;;;;;;6.82;2.08;;;;;;;;;;5068545;28;20089;-57
2022/05/20 04:54:50;;;;;;;5.97;2.47;;;;;;;;;;5056869;28;20055;-57
2022/05/20 04:57:29;;;;;;;6.43;2.20;;;;;;;;;;5068063;28;20548;-57
2022/05/20 04:59:58;;;;;;;7.43;2.03;;;;;;;;;;5058177;28;20392;-56
2022/05/20 05:02:25;;;;;;;6.10;2.55;;;;;;;;;;5067400;28;20055;-58
2022/05/20 05:04:51;;;;;;;7.78;2.30;;;;;;;;;;5059727;28;20044;-57
2022/05/20 05:07:17;;;;;;;6.75;2.33;;;;;;;;;;5055286;28;20111;-58
2022/05/20 05:09:44;;;;;;;6.80;1.92;;;;;;;;;;5054628;28;20433;-57
2022/05/20 05:12:11;;;;;;;6.28;2.92;;;;;;;;;;5054872;28;20080;-58
2022/05/20 05:14:38;;;;;;;5.07;1.98;;;;;;;;;;5052374;28;20025;-57
2022/05/20 05:17:08;;;;;;;6.38;2.63;;;;;;;;;;5056975;28;20506;-55
2022/05/20 05:19:35;;;;;;;13.82;3.67;;;;;;;;;;5050266;28;20028;-57
2022/05/20 05:22:01;;;;;;;36.80;10.15;;;;;;;;;;5068713;28;20024;-57
2022/05/20 05:24:27;;;;;;;28.17;12.15;;;;;;;;;;5066787;28;20386;-57
2022/05/20 05:26:53;;;;;;;27.77;13.77;;;;;;;;;;5057283;28;20427;-56
2022/05/20 05:29:19;;;;;;;28.08;14.27;;;;;;;;;;5067885;28;20387;-57
2022/05/20 05:31:45;;;;;;;26.38;15.18;;;;;;;;;;5052936;28;20039;-57
2022/05/20 05:34:11;;;;;;;20.88;14.30;;;;;;;;;;5068625;28;20406;-58
2022/05/20 05:36:37;;;;;;;28.60;17.38;;;;;;;;;;5056917;28;20060;-56
2022/05/20 05:39:04;;;;;;;31.08;15.57;;;;;;;;;;5072932;28;20094;-57
2022/05/20 05:41:30;;;;;;;21.10;16.77;;;;;;;;;;5067957;28;20036;-57
2022/05/20 05:44:01;;;;;;;28.45;16.77;;;;;;;;;;5052547;28;20028;-57
2022/05/20 05:46:27;;;;;;;24.45;15.60;;;;;;;;;;5062986;28;20036;-56
2022/05/20 05:48:53;;;;;;;22.58;15.32;;;;;;;;;;5053817;28;20082;-57
2022/05/20 05:51:19;;;;;;;21.98;14.60;;;;;;;;;;5059477;28;20032;-60
2022/05/20 05:53:45;;;;;;;25.20;14.20;;;;;;;;;;5066919;28;20055;-57
2022/05/20 05:56:11;;;;;;;20.73;14.00;;;;;;;;;;5065751;28;20400;-57
2022/05/20 05:58:37;;;;;;;21.67;13.75;;;;;;;;;;5065324;28;20086;-57
2022/05/20 06:01:04;;;;;;;54.20;16.13;;;;;;;;;;5069259;28;20246;-58
2022/05/20 06:03:30;;;;;;;51.53;17.33;;;;;;;;;;5062109;28;20087;-59
2022/05/20 06:05:56;;;;;;;51.75;17.20;;;;;;;;;;5070341;28;20384;-58
2022/05/20 06:08:22;;;;;;;48.80;17.50;;;;;;;;;;5050426;28;20040;-58
2022/05/20 06:10:49;;;;;;;53.65;16.92;;;;;;;;;;5054072;28;20123;-58
2022/05/20 06:13:22;;;;;;;45.40;16.20;;;;;;;;;;5060461;28;20701;-56
2022/05/20 06:15:49;;;;;;;39.45;14.45;;;;;;;;;;5071189;28;20617;-59
2022/05/20 06:18:15;;;;;;;39.25;14.02;;;;;;;;;;5059854;28;20390;-57
2022/05/20 06:20:41;;;;;;;49.53;15.55;;;;;;;;;;5067860;28;20524;-56
2022/05/20 06:23:07;;;;;;;51.08;14.63;;;;;;;;;;5056548;28;20119;-59
2022/05/20 06:25:33;;;;;;;40.50;13.90;;;;;;;;;;5071246;28;20537;-57
2022/05/20 06:28:06;;;;;;;67.35;15.68;;;;;;;;;;5066673;28;20032;-56
2022/05/20 06:30:32;;;;;;;51.70;15.27;;;;;;;;;;5050649;28;20025;-57
2022/05/20 06:32:58;;;;;;;46.33;14.07;;;;;;;;;;5055118;28;20095;-57
2022/05/20 06:40:55;;;;;;;33.42;12.45;;;;;;;;;;5063604;28;20043;-60
2022/05/20 06:43:22;;;;;;;23.42;11.88;;;;;;;;;;5068156;28;20043;-60
2022/05/20 06:45:52;;;;;;;27.75;13.73;;;;;;;;;;5072406;28;20025;-59
2022/05/20 06:48:18;;;;;;;27.88;11.98;;;;;;;;;;5061601;28;20518;-60
2022/05/20 06:50:44;;;;;;;24.80;11.77;;;;;;;;;;5050951;28;20060;-60
2022/05/20 06:53:11;;;;;;;28.58;11.77;;;;;;;;;;5064844;28;20029;-60
2022/05/20 06:55:37;;;;;;;22.65;11.90;;;;;;;;;;5064077;28;20051;-59
2022/05/20 06:58:03;;;;;;;30.50;11.82;;;;;;;;;;5065608;28;20363;-59
2022/05/20 07:00:29;;;;;;;37.42;12.50;;;;;;;;;;5075572;28;20051;-59
2022/05/20 07:02:56;;;;;;;26.02;11.63;;;;;;;;;;5067565;28;20028;-60
2022/05/20 07:05:22;;;;;;;24.95;11.15;;;;;;;;;;5069560;28;20116;-60
2022/05/20 07:07:48;;;;;;;38.13;12.73;;;;;;;;;;5059257;28;20103;-60
2022/05/20 07:10:15;;;;;;;53.05;13.00;;;;;;;;;;5064169;28;20479;-60
2022/05/20 07:12:41;;;;;;;27.33;11.93;;;;;;;;;;5069932;28;20078;-59
2022/05/20 07:15:08;;;;;;;32.20;12.05;;;;;;;;;;5057514;28;20109;-60
2022/05/20 07:17:35;;;;;;;22.52;10.70;;;;;;;;;;5068989;28;20033;-61
2022/05/20 07:20:01;;;;;;;22.48;11.00;;;;;;;;;;5068469;28;20028;-60
2022/05/20 07:22:27;;;;;;;20.55;10.50;;;;;;;;;;5070282;28;20031;-60
2022/05/20 07:24:55;;;;;;;18.13;10.65;;;;;;;;;;5065801;28;20028;-60
2022/05/20 07:27:21;;;;;;;20.55;12.15;;;;;;;;;;5050549;28;20033;-60
2022/05/20 07:29:47;;;;;;;20.33;12.13;;;;;;;;;;5058667;28;20066;-60
2022/05/20 07:32:13;;;;;;;23.02;10.90;;;;;;;;;;5053014;28;20021;-60
2022/05/20 07:34:39;;;;;;;23.30;11.25;;;;;;;;;;5057155;28;20091;-60
2022/05/20 07:37:06;;;;;;;21.48;10.95;;;;;;;;;;5055483;28;20036;-59
2022/05/20 07:39:33;;;;;;;23.98;11.73;;;;;;;;;;5054568;28;20477;-59
2022/05/20 07:41:59;;;;;;;19.48;13.07;;;;;;;;;;5058090;28;20029;-60
2022/05/20 07:44:27;;;;;;;20.77;11.57;;;;;;;;;;5053575;28;20028;-60
2022/05/20 07:46:53;;;;;;;19.63;12.77;;;;;;;;;;5060342;28;20032;-60
2022/05/20 07:49:19;;;;;;;20.58;12.40;;;;;;;;;;5068352;28;20072;-60
2022/05/20 07:51:48;;;;;;;19.95;13.10;;;;;;;;;;5069272;28;20362;-60
2022/05/20 07:54:15;;;;;;;21.10;12.70;;;;;;;;;;5068799;28;20040;-59
2022/05/20 07:56:44;;;;;;;18.63;12.68;;;;;;;;;;5060953;28;20092;-59
2022/05/20 07:59:19;;;;;;;18.20;11.95;;;;;;;;;;5049007;28;20879;-60
2022/05/20 08:01:47;;;;;;;28.10;11.82;;;;;;;;;;5058281;28;20076;-61
2022/05/20 08:07:02;;;;;;;20.95;11.60;;;;;;;;;;5053709;28;20036;-60
2022/05/20 08:09:28;;;;;;;24.27;10.95;;;;;;;;;;5049590;28;20052;-51
2022/05/20 08:11:55;;;;;;;18.27;11.02;;;;;;;;;;5061830;28;20047;-52
2022/05/20 08:14:21;;;;;;;23.95;11.32;;;;;;;;;;5049734;28;20040;-49
2022/05/20 08:16:47;;;;;;;19.45;12.60;;;;;;;;;;5053786;28;20024;-52
2022/05/20 08:19:13;;;;;;;17.80;13.10;;;;;;;;;;5069629;28;20029;-50
2022/05/20 08:21:39;;;;;;;19.52;12.85;;;;;;;;;;5058177;28;20409;-50
2022/05/20 08:24:05;;;;;;;15.75;11.18;;;;;;;;;;5067940;28;20832;-55
2022/05/20 08:26:31;;;;;;;17.15;10.45;;;;;;;;;;5060384;28;20033;-51
2022/05/20 08:28:59;;;;;;;15.23;10.15;;;;;;;;;;5065036;28;20040;-52
2022/05/20 08:31:25;;;;;;;15.30;9.10;;;;;;;;;;5063080;28;20029;-51
2022/05/20 08:33:51;;;;;;;16.85;9.48;;;;;;;;;;5062731;28;20131;-54
2022/05/20 08:36:18;;;;;;;13.75;6.95;;;;;;;;;;5065574;28;20029;-51
2022/05/20 08:38:46;;;;;;;16.70;8.00;;;;;;;;;;5060273;28;20109;-52
2022/05/20 08:41:15;;;;;;;13.80;6.10;;;;;;;;;;5064582;28;20513;-54
2022/05/20 08:43:41;;;;;;;12.93;6.27;;;;;;;;;;5058257;28;20081;-51
2022/05/20 08:46:08;;;;;;;13.85;6.25;;;;;;;;;;5067319;28;20407;-54
2022/05/20 08:48:34;;;;;;;10.13;6.15;;;;;;;;;;5051530;28;20059;-52
2022/05/20 08:51:01;;;;;;;15.23;7.60;;;;;;;;;;5056960;28;20167;-54
2022/05/20 08:53:36;;;;;;;11.45;7.50;;;;;;;;;;5064906;28;20024;-56
2022/05/20 08:56:05;;;;;;;13.45;5.80;;;;;;;;;;5069026;28;20025;-54
2022/05/20 08:58:31;;;;;;;28.65;7.82;;;;;;;;;;5056037;28;20695;-53
2022/05/20 09:00:57;;;;;;;19.00;7.13;;;;;;;;;;5069049;28;20052;-54
2022/05/20 09:03:23;;;;;;;20.02;7.13;;;;;;;;;;5056004;28;20098;-53
2022/05/20 09:05:49;;;;;;;25.38;7.43;;;;;;;;;;5069297;28;20028;-52
2022/05/20 09:08:26;;;;;;;25.50;7.10;;;;;;;;;;5064254;28;20559;-48
2022/05/20 09:10:56;;;;;;;18.05;8.88;;;;;;;;;;5050585;28;20060;-51
2022/05/20 09:16:16;;;;;;;15.23;8.90;;;;;;;;;;5060750;28;20066;-49
2022/05/20 09:18:44;;;;;;;17.73;8.55;;;;;;;;;;5060325;28;20108;-52
2022/05/20 09:21:23;;;;;;;24.98;9.15;;;;;;;;;;5072843;28;20490;-47
2022/05/20 09:23:51;;;;;;;21.33;8.25;;;;;;;;;;5068545;28;20024;-52
2022/05/20 09:26:21;;;;;;;16.48;7.75;;;;;;;;;;5053357;28;20068;-52
2022/05/20 09:28:52;;;;;;;19.05;7.85;;;;;;;;;;5061991;28;20853;-52
2022/05/20 09:31:23;;;;;;;21.05;4.53;;;;;;;;;;5054294;28;20036;-51
2022/05/20 09:34:08;;;;;;;17.02;7.18;;;;;;;;;;5060699;28;20129;-51
2022/05/20 09:36:44;;;;;;;17.95;7.13;;;;;;;;;;5052984;28;20487;-48
2022/05/20 09:39:12;;;;;;;16.55;6.68;;;;;;;;;;5061936;28;20020;-47
2022/05/20 09:41:48;;;;;;;16.65;10.63;;;;;;;;;;5054043;28;20043;-49
2022/05/20 09:44:16;;;;;;;26.35;11.00;;;;;;;;;;5056186;28;20444;-50
2022/05/20 09:46:49;;;;;;;21.55;10.75;;;;;;;;;;5068884;28;20032;-50
2022/05/20 09:49:17;;;;;;;18.42;13.55;;;;;;;;;;5067348;28;20039;-50
2022/05/20 09:52:03;;;;;;;15.43;11.18;;;;;;;;;;5056286;28;20025;-48
2022/05/20 09:54:38;;;;;;;17.85;12.68;;;;;;;;;;5059959;28;20025;-51
2022/05/20 09:57:14;;;;;;;15.48;11.55;;;;;;;;;;5055095;28;20025;-52
2022/05/20 09:59:52;;;;;;;18.30;12.13;;;;;;;;;;5060405;28;20119;-52
2022/05/20 10:02:33;;;;;;;20.08;11.40;;;;;;;;;;5054313;28;20040;-50
2022/05/20 10:05:03;;;;;;;18.60;10.85;;;;;;;;;;5064075;28;20510;-47
2022/05/20 10:07:44;;;;;;;13.38;9.45;;;;;;;;;;5061699;28;20028;-49
2022/05/20 10:10:13;;;;;;;14.65;9.43;;;;;;;;;;5067533;28;20364;-52
2022/05/20 10:12:41;;;;;;;16.92;9.63;;;;;;;;;;5053877;28;20458;-47
2022/05/20 10:15:16;;;;;;;16.95;8.73;;;;;;;;;;5059196;28;20020;-50
2022/05/20 10:17:42;;;;;;;15.20;9.70;;;;;;;;;;5054688;28;20075;-52
2022/05/20 10:20:12;;;;;;;19.45;10.32;;;;;;;;;;5058086;28;20037;-52
2022/05/20 10:22:53;;;;;;;16.60;10.88;;;;;;;;;;5055808;28;20120;-52
2022/05/20 10:25:26;;;;;;;20.10;10.52;;;;;;;;;;5058305;28;20021;-49
2022/05/20 10:28:07;;;;;;;13.52;9.82;;;;;;;;;;5056828;28;20029;-53
2022/05/20 10:33:30;;;;;;;18.33;9.43;;;;;;;;;;5052227;28;20128;-50
2022/05/20 10:36:01;;;;;;;17.45;9.30;;;;;;;;;;5063321;28;20109;-48
2022/05/20 10:38:57;;;;;;;16.77;7.57;;;;;;;;;;5070916;28;20027;-46
2022/05/20 10:41:55;;;;;;;15.30;8.02;;;;;;;;;;5053384;28;20052;-52
2022/05/20 10:50:38;;;;;;;13.50;8.10;;;;;;;;;;5054311;28;20387;-50
2022/05/20 10:53:24;;;;;;;16.55;7.25;;;;;;;;;;5071152;28;20078;-51
2022/05/20 10:56:09;;;;;;;15.82;6.40;;;;;;;;;;5067896;28;20020;-48
2022/05/20 10:58:35;;;;;;;10.73;6.65;;;;;;;;;;5062270;28;20115;-48
2022/05/20 11:01:05;;;;;;;15.43;6.43;;;;;;;;;;5065960;28;20083;-47
2022/05/20 11:03:31;;;;;;;;;;;;;;;;;;5060167;28;20029;-49
2022/05/20 11:06:03;;;;;;;10.57;5.25;;;;;;;;;;5051416;28;19982;-52
2022/05/20 11:08:38;;;;;;;12.77;5.90;;;;;;;;;;5064396;28;20073;-46
2022/05/20 11:11:05;;;;;;;13.07;5.63;;;;;;;;;;5067330;28;20100;-50
2022/05/20 11:13:49;;;;;;;8.80;4.95;;;;;;;;;;5057356;28;20047;-48
2022/05/20 11:16:18;;;;;;;13.35;4.85;;;;;;;;;;5067321;28;20040;-49
2022/05/20 11:18:52;;;;;;;15.43;5.82;;;;;;;;;;5060536;28;20064;-51
2022/05/20 11:21:37;;;;;;;9.25;4.57;;;;;;;;;;5049482;28;20040;-50
2022/05/20 11:24:09;;;;;;;9.82;4.38;;;;;;;;;;5058282;28;20134;-48
2022/05/20 11:26:38;;;;;;;11.23;5.22;;;;;;;;;;5067520;28;20020;-50
2022/05/20 11:29:21;;;;;;;10.90;4.20;;;;;;;;;;5059431;28;20024;-50
2022/05/20 11:31:51;;;;;;;8.35;3.83;;;;;;;;;;5069234;28;20033;-51
2022/05/20 11:34:29;;;;;;;8.38;4.03;;;;;;;;;;5049577;28;20077;-50
2022/05/20 11:37:02;;;;;;;11.40;4.00;;;;;;;;;;5051430;28;20348;-49
2022/05/20 11:39:46;;;;;;;8.07;3.63;;;;;;;;;;5061338;28;20032;-50
2022/05/20 11:42:19;;;;;;;12.32;4.88;;;;;;;;;;5066339;28;20041;-50
2022/05/20 11:44:48;;;;;;;7.82;3.78;;;;;;;;;;5059607;28;20047;-51
2022/05/20 11:47:34;;;;;;;10.27;3.65;;;;;;;;;;5068233;28;20029;-51
2022/05/20 11:50:03;;;;;;;10.23;3.60;;;;;;;;;;5059770;28;20098;-52
2022/05/20 11:52:50;;;;;;;8.13;3.20;;;;;;;;;;5068187;28;20835;-49
2022/05/20 11:55:20;;;;;;;7.22;3.25;;;;;;;;;;5060686;28;20044;-52
2022/05/20 11:57:49;;;;;;;10.98;3.22;;;;;;;;;;5066185;28;20072;-50
2022/05/20 12:00:19;;;;;;;8.07;3.50;;;;;;;;;;5060060;28;20045;-49
2022/05/20 12:02:56;;;;;;;7.20;2.67;;;;;;;;;;5052749;28;20777;-50
2022/05/20 12:05:24;;;;;;;9.73;2.97;;;;;;;;;;5058730;28;20406;-48
2022/05/20 12:07:50;;;;;;;5.18;2.70;;;;;;;;;;5067557;28;20024;-50
2022/05/20 12:10:22;;;;;;;6.45;2.92;;;;;;;;;;5058295;28;20392;-49
2022/05/20 12:13:08;;;;;;;7.15;2.70;;;;;;;;;;5068743;28;20100;-49
2022/05/20 12:15:40;;;;;;;5.70;2.75;;;;;;;;;;5060172;28;20040;-49
2022/05/20 12:24:26;;;;;;;5.15;2.08;;;;;;;;;;5063171;28;19912;-52
2022/05/20 12:26:53;;;;;;;6.93;2.70;;;;;;;;;;5064515;28;20538;-49
2022/05/20 12:29:37;;;;;;;5.28;2.50;;;;;;;;;;5063382;28;20029;-52
2022/05/20 12:32:42;;;;;;;6.28;2.92;;;;;;;;;;5064550;28;20033;-48
2022/05/20 12:35:10;;;;;;;4.95;2.13;;;;;;;;;;4983133;28;20583;-52
2022/05/20 12:37:45;;;;;;;5.55;2.22;;;;;;;;;;4969530;28;20449;-48
2022/05/20 12:40:17;;;;;;;6.88;2.28;;;;;;;;;;5022126;28;20505;-49
2022/05/20 12:42:55;;;;;;;6.22;2.90;;;;;;;;;;5050848;28;20108;-49
2022/05/20 12:45:22;;;;;;;5.85;2.35;;;;;;;;;;5052859;28;20104;-49
2022/05/20 12:47:48;;;;;;;9.05;2.42;;;;;;;;;;5066956;28;20111;-46
2022/05/20 12:50:17;;;;;;;11.07;3.47;;;;;;;;;;5061093;28;20029;-52
2022/05/20 12:52:48;;;;;;;6.88;2.40;;;;;;;;;;5064213;28;20111;-51
2022/05/20 12:55:14;;;;;;;6.38;2.58;;;;;;;;;;5064035;28;20033;-50
2022/05/20 12:58:00;;;;;;;7.95;2.95;;;;;;;;;;5055463;28;20494;-47
2022/05/20 13:00:31;;;;;;;6.53;2.45;;;;;;;;;;5063834;28;20115;-51
2022/05/20 13:03:07;;;;;;;6.05;1.95;;;;;;;;;;5068963;28;20127;-52
2022/05/20 13:05:36;;;;;;;10.27;2.22;;;;;;;;;;5062539;28;20017;-46
2022/05/20 13:08:03;;;;;;;5.57;2.28;;;;;;;;;;5052445;28;20025;-49
2022/05/20 13:10:30;;;;;;;8.00;2.60;;;;;;;;;;5057105;28;20195;-47
2022/05/20 13:12:59;;;;;;;9.75;2.60;;;;;;;;;;5060228;28;20021;-48
2022/05/20 13:15:25;;;;;;;8.47;2.30;;;;;;;;;;5066742;28;20066;-47
2022/05/20 13:18:01;;;;;;;5.63;1.98;;;;;;;;;;5058273;28;20115;-49
2022/05/20 13:20:28;;;;;;;5.93;2.33;;;;;;;;;;5067175;28;20029;-50
2022/05/20 13:22:59;;;;;;;6.07;2.28;;;;;;;;;;5057450;28;20032;-49
2022/05/20 13:25:25;;;;;;;7.30;2.80;;;;;;;;;;5066576;28;20059;-50
2022/05/20 13:27:51;;;;;;;8.93;2.35;;;;;;;;;;5057511;28;20052;-51
2022/05/20 13:30:19;;;;;;;7.60;2.65;;;;;;;;;;5068154;28;20581;-50
2022/05/20 13:32:46;;;;;;;6.80;2.17;;;;;;;;;;5056795;28;20399;-49
2022/05/20 13:35:12;;;;;;;8.57;2.60;;;;;;;;;;5068124;28;20040;-49
2022/05/20 13:37:45;;;;;;;7.30;2.28;;;;;;;;;;5055620;28;20108;-52
2022/05/20 13:40:15;;;;;;;7.20;2.45;;;;;;;;;;5064671;28;20509;-51
2022/05/20 13:42:47;;;;;;;7.60;2.72;;;;;;;;;;5063872;28;20500;-50
2022/05/20 13:45:14;;;;;;;10.23;2.75;;;;;;;;;;5067302;28;20041;-52
2022/05/20 13:50:26;;;;;;;24.58;3.50;;;;;;;;;;5048712;28;20126;-51
2022/05/20 13:52:54;;;;;;;22.17;4.22;;;;;;;;;;5063675;28;20021;-52
2022/05/20 13:55:22;;;;;;;20.10;3.50;;;;;;;;;;5067913;28;20167;-49
2022/05/20 13:57:49;;;;;;;14.90;3.58;;;;;;;;;;5065787;28;20025;-51
2022/05/20 14:00:41;;;;;;;25.52;4.22;;;;;;;;;;5054364;28;20443;-51
2022/05/20 14:03:19;;;;;;;28.55;5.43;;;;;;;;;;5059275;28;20123;-49
2022/05/20 14:05:48;;;;;;;25.95;4.38;;;;;;;;;;5052414;28;20086;-52
2022/05/20 14:08:16;;;;;;;28.38;4.65;;;;;;;;;;5063892;28;20035;-51
2022/05/20 14:10:42;;;;;;;28.33;4.95;;;;;;;;;;5058084;28;20111;-49
2022/05/20 14:13:13;;;;;;;20.52;4.63;;;;;;;;;;5065714;28;20028;-52
2022/05/20 14:15:41;;;;;;;21.70;5.20;;;;;;;;;;5071726;28;20099;-50
2022/05/20 14:18:11;;;;;;;24.02;5.60;;;;;;;;;;5067755;28;20024;-46
2022/05/20 14:20:39;;;;;;;22.73;5.25;;;;;;;;;;5062115;28;20024;-49
2022/05/20 14:23:06;;;;;;;16.95;5.95;;;;;;;;;;5067663;28;20445;-48
2022/05/20 14:25:44;;;;;;;16.33;4.85;;;;;;;;;;5071536;28;20123;-48
2022/05/20 14:28:19;;;;;;;14.27;4.75;;;;;;;;;;5067224;28;20029;-46
2022/05/20 14:30:49;;;;;;;16.25;4.50;;;;;;;;;;5051751;28;20045;-50
2022/05/20 14:33:27;;;;;;;27.63;4.80;;;;;;;;;;5054824;28;20024;-48
2022/05/20 14:35:54;;;;;;;17.77;5.45;;;;;;;;;;5058461;28;20052;-49
2022/05/20 14:38:25;;;;;;;19.98;4.45;;;;;;;;;;5054292;28;20063;-47
2022/05/20 14:40:52;;;;;;;17.85;4.80;;;;;;;;;;5071453;28;20039;-52
2022/05/20 14:43:28;;;;;;;16.58;4.72;;;;;;;;;;5067231;28;20029;-49
2022/05/20 14:45:58;;;;;;;11.73;4.03;;;;;;;;;;5061427;28;20889;-53
2022/05/20 14:48:31;;;;;;;18.27;5.28;;;;;;;;;;5069373;28;20020;-47
2022/05/20 14:50:58;;;;;;;19.20;5.40;;;;;;;;;;5060580;28;20029;-49
2022/05/20 14:53:27;;;;;;;13.07;4.30;;;;;;;;;;5068171;28;20083;-49
2022/05/20 14:55:54;;;;;;;14.30;5.22;;;;;;;;;;5061942;28;20009;-46
2022/05/20 14:58:23;;;;;;;16.88;4.93;;;;;;;;;;5052275;28;20029;-48
2022/05/20 15:00:53;;;;;;;24.38;5.15;;;;;;;;;;5062067;28;20120;-47
2022/05/20 15:03:21;;;;;;;17.90;6.30;;;;;;;;;;5064953;28;20033;-46
2022/05/20 15:05:47;;;;;;;15.25;5.63;;;;;;;;;;5065713;28;20123;-46
2022/05/20 15:08:14;;;;;;;15.52;5.43;;;;;;;;;;5070390;28;20052;-48
2022/05/20 15:10:40;;;;;;;18.23;5.72;;;;;;;;;;5058055;28;20425;-48
2022/05/20 15:13:06;;;;;;;20.38;5.18;;;;;;;;;;5070860;28;20115;-49
2022/05/20 15:15:32;;;;;;;17.02;5.20;;;;;;;;;;5060325;28;20099;-47
2022/05/20 15:18:01;;;;;;;13.35;5.22;;;;;;;;;;5070038;28;20178;-46
2022/05/20 15:20:28;;;;;;;16.02;4.47;;;;;;;;;;5061235;28;20033;-48
2022/05/20 15:22:55;;;;;;;13.88;4.97;;;;;;;;;;5067301;28;20082;-46
2022/05/20 15:25:21;;;;;;;12.27;4.95;;;;;;;;;;5065162;28;20052;-49
2022/05/20 15:27:47;;;;;;;11.88;4.57;;;;;;;;;;5056581;28;20048;-48